Hemel Hempstead, United Kingdom
Current Conditions -  °F | °C
As of 2:20 PM on Saturday 20 Dec 2014 (Local Time) from EGGW Reporting Station
Broken Clouds Broken Clouds  
Wind Chill: 39°   Ceiling: 3200
Heat Index: 46°   Visibility: 6mi
Dew Point: 37°   Wind: 20mph
Humidity: 71%   Direction: 280°W
Pressure: 30.27"   Gusts: NA
Location:  51.75°N, 0.47°W
Report Text: EGGW 201420Z 28017KT 9999 BKN032 08/03 Q1025
Loading
Personal Weather Stations






























Interactive Weather Map New forecast layout! Learn more

10-Day Weather Forecast

Advertisements
Track Severe Weather on mobile